sensor_id;sensor_type;location;lat;lon;timestamp;temperature;humidity
4820;DHT22;2424;49.696;6.630;2022-09-03T00:05:28;19.30;95.60
4820;DHT22;2424;49.696;6.630;2022-09-03T00:10:57;19.10;95.80
4820;DHT22;2424;49.696;6.630;2022-09-03T00:16:24;19.10;96.40
4820;DHT22;2424;49.696;6.630;2022-09-03T00:21:50;19.10;96.00
4820;DHT22;2424;49.696;6.630;2022-09-03T00:27:17;19.20;96.40
4820;DHT22;2424;49.696;6.630;2022-09-03T00:32:44;19.00;96.40
4820;DHT22;2424;49.696;6.630;2022-09-03T00:38:08;19.00;96.20
4820;DHT22;2424;49.696;6.630;2022-09-03T00:43:39;18.90;96.80
4820;DHT22;2424;49.696;6.630;2022-09-03T00:49:22;18.90;96.80
4820;DHT22;2424;49.696;6.630;2022-09-03T00:54:50;18.90;97.40
4820;DHT22;2424;49.696;6.630;2022-09-03T01:00:18;18.80;98.50
4820;DHT22;2424;49.696;6.630;2022-09-03T01:05:56;18.90;97.30
4820;DHT22;2424;49.696;6.630;2022-09-03T01:11:26;18.80;99.30
4820;DHT22;2424;49.696;6.630;2022-09-03T01:16:56;18.80;99.90
4820;DHT22;2424;49.696;6.630;2022-09-03T01:22:58;18.80;98.00
4820;DHT22;2424;49.696;6.630;2022-09-03T01:28:38;18.80;99.30
4820;DHT22;2424;49.696;6.630;2022-09-03T01:34:12;18.80;99.90
4820;DHT22;2424;49.696;6.630;2022-09-03T01:39:43;18.70;99.90
4820;DHT22;2424;49.696;6.630;2022-09-03T01:45:20;18.70;99.90
4820;DHT22;2424;49.696;6.630;2022-09-03T01:50:48;18.70;99.90
4820;DHT22;2424;49.696;6.630;2022-09-03T01:56:21;18.70;99.90
4820;DHT22;2424;49.696;6.630;2022-09-03T02:01:55;18.70;99.90
4820;DHT22;2424;49.696;6.630;2022-09-03T02:07:19;18.60;99.90
4820;DHT22;2424;49.696;6.630;2022-09-03T02:12:45;18.60;99.90
4820;DHT22;2424;49.696;6.630;2022-09-03T02:18:15;18.50;99.90
4820;DHT22;2424;49.696;6.630;2022-09-03T02:23:39;18.50;99.90
4820;DHT22;2424;49.696;6.630;2022-09-03T02:29:02;18.40;99.90
4820;DHT22;2424;49.696;6.630;2022-09-03T02:34:25;18.40;99.90
4820;DHT22;2424;49.696;6.630;2022-09-03T02:39:48;18.30;99.90
4820;DHT22;2424;49.696;6.630;2022-09-03T02:45:19;18.20;99.90
4820;DHT22;2424;49.696;6.630;2022-09-03T02:50:44;18.20;99.90
4820;DHT22;2424;49.696;6.630;2022-09-03T02:56:06;18.10;99.90
4820;DHT22;2424;49.696;6.630;2022-09-03T03:01:28;18.10;99.90
4820;DHT22;2424;49.696;6.630;2022-09-03T03:06:52;17.90;99.90
4820;DHT22;2424;49.696;6.630;2022-09-03T03:12:14;17.80;99.90
4820;DHT22;2424;49.696;6.630;2022-09-03T03:17:36;17.70;99.90
4820;DHT22;2424;49.696;6.630;2022-09-03T03:23:02;17.60;99.90
4820;DHT22;2424;49.696;6.630;2022-09-03T03:28:25;17.50;99.90
4820;DHT22;2424;49.696;6.630;2022-09-03T03:33:50;17.30;99.90
4820;DHT22;2424;49.696;6.630;2022-09-03T03:39:13;17.40;99.90
4820;DHT22;2424;49.696;6.630;2022-09-03T03:44:35;17.40;99.90
4820;DHT22;2424;49.696;6.630;2022-09-03T03:49:58;17.30;99.90
4820;DHT22;2424;49.696;6.630;2022-09-03T03:55:21;17.30;99.90
4820;DHT22;2424;49.696;6.630;2022-09-03T04:00:43;17.30;99.90
4820;DHT22;2424;49.696;6.630;2022-09-03T04:06:08;17.20;99.90
4820;DHT22;2424;49.696;6.630;2022-09-03T04:11:31;17.20;99.90
4820;DHT22;2424;49.696;6.630;2022-09-03T04:16:53;17.20;99.90
4820;DHT22;2424;49.696;6.630;2022-09-03T04:22:16;17.20;99.90
4820;DHT22;2424;49.696;6.630;2022-09-03T04:27:41;17.10;99.90
4820;DHT22;2424;49.696;6.630;2022-09-03T04:33:03;17.10;99.90
4820;DHT22;2424;49.696;6.630;2022-09-03T04:38:28;17.10;99.90
4820;DHT22;2424;49.696;6.630;2022-09-03T04:43:54;17.10;99.90
4820;DHT22;2424;49.696;6.630;2022-09-03T04:49:16;17.00;99.90
4820;DHT22;2424;49.696;6.630;2022-09-03T04:54:39;17.10;99.90
4820;DHT22;2424;49.696;6.630;2022-09-03T05:00:03;17.00;99.90
4820;DHT22;2424;49.696;6.630;2022-09-03T05:05:27;17.00;99.90
4820;DHT22;2424;49.696;6.630;2022-09-03T05:10:49;17.10;99.90
4820;DHT22;2424;49.696;6.630;2022-09-03T05:16:20;17.00;99.90
4820;DHT22;2424;49.696;6.630;2022-09-03T05:21:43;17.00;99.90
4820;DHT22;2424;49.696;6.630;2022-09-03T05:27:05;17.10;99.90
4820;DHT22;2424;49.696;6.630;2022-09-03T05:32:30;17.10;99.90
4820;DHT22;2424;49.696;6.630;2022-09-03T05:37:54;17.10;99.90
4820;DHT22;2424;49.696;6.630;2022-09-03T05:43:16;17.00;99.90
4820;DHT22;2424;49.696;6.630;2022-09-03T05:48:41;17.00;99.90
4820;DHT22;2424;49.696;6.630;2022-09-03T05:54:03;17.00;99.90
4820;DHT22;2424;49.696;6.630;2022-09-03T05:59:28;17.10;99.90
4820;DHT22;2424;49.696;6.630;2022-09-03T06:04:51;16.80;99.90
4820;DHT22;2424;49.696;6.630;2022-09-03T06:10:13;16.80;99.90
4820;DHT22;2424;49.696;6.630;2022-09-03T06:15:36;17.10;99.90
4820;DHT22;2424;49.696;6.630;2022-09-03T06:21:01;16.90;99.90
4820;DHT22;2424;49.696;6.630;2022-09-03T06:26:24;17.10;99.90
4820;DHT22;2424;49.696;6.630;2022-09-03T06:31:47;17.10;99.90
4820;DHT22;2424;49.696;6.630;2022-09-03T06:37:11;17.10;99.90
4820;DHT22;2424;49.696;6.630;2022-09-03T06:42:33;17.20;99.90
4820;DHT22;2424;49.696;6.630;2022-09-03T06:47:55;17.40;99.90
4820;DHT22;2424;49.696;6.630;2022-09-03T06:53:19;17.50;99.90
4820;DHT22;2424;49.696;6.630;2022-09-03T06:58:42;17.60;99.90
4820;DHT22;2424;49.696;6.630;2022-09-03T07:04:04;17.60;99.90
4820;DHT22;2424;49.696;6.630;2022-09-03T07:09:28;17.50;99.90
4820;DHT22;2424;49.696;6.630;2022-09-03T07:14:51;17.40;99.90
4820;DHT22;2424;49.696;6.630;2022-09-03T07:20:14;17.30;99.90
4820;DHT22;2424;49.696;6.630;2022-09-03T07:25:37;17.40;99.90
4820;DHT22;2424;49.696;6.630;2022-09-03T07:31:03;17.70;99.90
4820;DHT22;2424;49.696;6.630;2022-09-03T07:36:26;17.80;99.90
4820;DHT22;2424;49.696;6.630;2022-09-03T07:41:50;17.90;99.90
4820;DHT22;2424;49.696;6.630;2022-09-03T07:47:12;18.10;99.90
4820;DHT22;2424;49.696;6.630;2022-09-03T07:52:34;18.20;99.90
4820;DHT22;2424;49.696;6.630;2022-09-03T07:57:58;18.30;99.90
4820;DHT22;2424;49.696;6.630;2022-09-03T08:03:20;18.40;99.90
4820;DHT22;2424;49.696;6.630;2022-09-03T08:08:42;18.50;99.90
4820;DHT22;2424;49.696;6.630;2022-09-03T08:14:08;18.60;99.90
4820;DHT22;2424;49.696;6.630;2022-09-03T08:19:30;18.70;99.90
4820;DHT22;2424;49.696;6.630;2022-09-03T08:24:52;18.80;99.90
4820;DHT22;2424;49.696;6.630;2022-09-03T08:30:16;18.90;99.90
4820;DHT22;2424;49.696;6.630;2022-09-03T08:35:39;19.00;99.90
4820;DHT22;2424;49.696;6.630;2022-09-03T08:41:05;19.20;99.90
4820;DHT22;2424;49.696;6.630;2022-09-03T08:46:37;19.30;99.90
4820;DHT22;2424;49.696;6.630;2022-09-03T08:52:04;19.50;99.90
4820;DHT22;2424;49.696;6.630;2022-09-03T08:57:31;19.70;99.90
4820;DHT22;2424;49.696;6.630;2022-09-03T09:03:20;19.80;99.90
4820;DHT22;2424;49.696;6.630;2022-09-03T09:08:57;20.10;99.90
4820;DHT22;2424;49.696;6.630;2022-09-03T09:14:29;20.30;99.90
4820;DHT22;2424;49.696;6.630;2022-09-03T09:20:03;20.20;99.90
4820;DHT22;2424;49.696;6.630;2022-09-03T09:25:27;20.50;99.90
4820;DHT22;2424;49.696;6.630;2022-09-03T09:30:54;20.60;99.90
4820;DHT22;2424;49.696;6.630;2022-09-03T09:36:19;21.10;99.90
4820;DHT22;2424;49.696;6.630;2022-09-03T09:41:53;21.30;99.90
4820;DHT22;2424;49.696;6.630;2022-09-03T09:47:24;21.20;99.90
4820;DHT22;2424;49.696;6.630;2022-09-03T09:52:59;21.40;99.90
4820;DHT22;2424;49.696;6.630;2022-09-03T09:58:26;21.40;99.90
4820;DHT22;2424;49.696;6.630;2022-09-03T10:03:52;21.50;99.90
4820;DHT22;2424;49.696;6.630;2022-09-03T10:09:20;21.50;99.90
4820;DHT22;2424;49.696;6.630;2022-09-03T10:14:48;21.70;99.90
4820;DHT22;2424;49.696;6.630;2022-09-03T10:20:14;21.70;99.90
4820;DHT22;2424;49.696;6.630;2022-09-03T10:25:57;21.90;99.90
4820;DHT22;2424;49.696;6.630;2022-09-03T10:31:35;21.90;99.90
4820;DHT22;2424;49.696;6.630;2022-09-03T10:37:10;21.90;99.90
4820;DHT22;2424;49.696;6.630;2022-09-03T10:42:43;21.80;99.90
4820;DHT22;2424;49.696;6.630;2022-09-03T10:48:32;22.00;99.90
4820;DHT22;2424;49.696;6.630;2022-09-03T10:54:18;22.50;99.90
4820;DHT22;2424;49.696;6.630;2022-09-03T10:59:58;23.00;99.90
4820;DHT22;2424;49.696;6.630;2022-09-03T11:05:28;23.30;99.90
4820;DHT22;2424;49.696;6.630;2022-09-03T11:10:54;23.20;99.90
4820;DHT22;2424;49.696;6.630;2022-09-03T11:16:21;23.50;99.90
4820;DHT22;2424;49.696;6.630;2022-09-03T11:21:47;23.60;99.90
4820;DHT22;2424;49.696;6.630;2022-09-03T11:27:19;23.50;99.90
4820;DHT22;2424;49.696;6.630;2022-09-03T11:32:48;23.20;99.90
4820;DHT22;2424;49.696;6.630;2022-09-03T11:38:20;23.30;99.90
4820;DHT22;2424;49.696;6.630;2022-09-03T11:43:46;23.50;99.90
4820;DHT22;2424;49.696;6.630;2022-09-03T11:49:12;23.40;99.90
4820;DHT22;2424;49.696;6.630;2022-09-03T11:54:42;23.20;99.90
4820;DHT22;2424;49.696;6.630;2022-09-03T12:00:10;22.90;99.90
4820;DHT22;2424;49.696;6.630;2022-09-03T12:05:41;22.20;99.90
4820;DHT22;2424;49.696;6.630;2022-09-03T12:11:21;21.30;99.90
4820;DHT22;2424;49.696;6.630;2022-09-03T12:17:05;20.30;99.90
4820;DHT22;2424;49.696;6.630;2022-09-03T12:22:35;19.70;99.90
4820;DHT22;2424;49.696;6.630;2022-09-03T12:28:01;19.70;99.90
4820;DHT22;2424;49.696;6.630;2022-09-03T12:33:24;19.60;99.90
4820;DHT22;2424;49.696;6.630;2022-09-03T12:38:48;19.50;99.90
4820;DHT22;2424;49.696;6.630;2022-09-03T12:44:11;19.80;99.90
4820;DHT22;2424;49.696;6.630;2022-09-03T12:49:35;20.00;99.90
4820;DHT22;2424;49.696;6.630;2022-09-03T12:55:01;20.00;99.90
4820;DHT22;2424;49.696;6.630;2022-09-03T13:00:28;20.00;99.90
4820;DHT22;2424;49.696;6.630;2022-09-03T13:05:54;20.30;99.90
4820;DHT22;2424;49.696;6.630;2022-09-03T13:11:20;20.30;99.90
4820;DHT22;2424;49.696;6.630;2022-09-03T13:17:16;20.50;99.90
4820;DHT22;2424;49.696;6.630;2022-09-03T13:22:49;20.50;99.90
4820;DHT22;2424;49.696;6.630;2022-09-03T13:28:24;20.60;99.90
4820;DHT22;2424;49.696;6.630;2022-09-03T13:33:53;20.60;99.90
4820;DHT22;2424;49.696;6.630;2022-09-03T13:39:23;20.60;99.90
4820;DHT22;2424;49.696;6.630;2022-09-03T13:44:54;20.60;99.90
4820;DHT22;2424;49.696;6.630;2022-09-03T13:50:20;20.70;99.90
4820;DHT22;2424;49.696;6.630;2022-09-03T13:55:45;20.80;99.90
4820;DHT22;2424;49.696;6.630;2022-09-03T14:01:14;20.80;99.90
4820;DHT22;2424;49.696;6.630;2022-09-03T14:06:40;20.90;99.90
4820;DHT22;2424;49.696;6.630;2022-09-03T14:12:13;21.20;99.90
4820;DHT22;2424;49.696;6.630;2022-09-03T14:17:43;21.50;99.90
4820;DHT22;2424;49.696;6.630;2022-09-03T14:23:16;21.50;99.90
4820;DHT22;2424;49.696;6.630;2022-09-03T14:28:45;21.70;99.90
4820;DHT22;2424;49.696;6.630;2022-09-03T14:34:18;22.30;99.90
4820;DHT22;2424;49.696;6.630;2022-09-03T14:39:47;22.40;99.90
4820;DHT22;2424;49.696;6.630;2022-09-03T14:45:44;22.40;99.90
4820;DHT22;2424;49.696;6.630;2022-09-03T14:51:22;21.90;99.90
4820;DHT22;2424;49.696;6.630;2022-09-03T14:56:49;21.80;99.90
4820;DHT22;2424;49.696;6.630;2022-09-03T15:14:13;21.60;99.90
4820;DHT22;2424;49.696;6.630;2022-09-03T15:19:54;21.80;99.90
4820;DHT22;2424;49.696;6.630;2022-09-03T15:25:27;21.90;99.90
4820;DHT22;2424;49.696;6.630;2022-09-03T15:30:58;22.20;99.90
4820;DHT22;2424;49.696;6.630;2022-09-03T15:36:23;22.70;99.90
4820;DHT22;2424;49.696;6.630;2022-09-03T15:41:51;23.00;99.90
4820;DHT22;2424;49.696;6.630;2022-09-03T15:47:31;23.20;99.90
4820;DHT22;2424;49.696;6.630;2022-09-03T15:53:00;23.40;99.90
4820;DHT22;2424;49.696;6.630;2022-09-03T15:58:29;23.20;99.90
4820;DHT22;2424;49.696;6.630;2022-09-03T16:04:00;23.30;99.90
4820;DHT22;2424;49.696;6.630;2022-09-03T16:09:44;23.30;99.90
4820;DHT22;2424;49.696;6.630;2022-09-03T16:15:14;23.10;99.90
4820;DHT22;2424;49.696;6.630;2022-09-03T16:20:42;23.20;99.90
4820;DHT22;2424;49.696;6.630;2022-09-03T16:26:09;23.30;99.90
4820;DHT22;2424;49.696;6.630;2022-09-03T16:31:45;23.30;99.90
4820;DHT22;2424;49.696;6.630;2022-09-03T16:37:19;23.30;99.90
4820;DHT22;2424;49.696;6.630;2022-09-03T16:42:48;23.10;99.90
4820;DHT22;2424;49.696;6.630;2022-09-03T16:48:23;22.90;99.90
4820;DHT22;2424;49.696;6.630;2022-09-03T16:53:59;22.80;99.90
4820;DHT22;2424;49.696;6.630;2022-09-03T16:59:40;22.60;99.90
4820;DHT22;2424;49.696;6.630;2022-09-03T17:05:19;22.60;99.90
4820;DHT22;2424;49.696;6.630;2022-09-03T17:10:48;22.50;99.90
4820;DHT22;2424;49.696;6.630;2022-09-03T17:16:18;22.40;99.90
4820;DHT22;2424;49.696;6.630;2022-09-03T17:21:48;22.20;99.90
4820;DHT22;2424;49.696;6.630;2022-09-03T17:27:30;22.00;99.90
4820;DHT22;2424;49.696;6.630;2022-09-03T17:33:16;22.00;99.90
4820;DHT22;2424;49.696;6.630;2022-09-03T17:39:25;21.80;99.90
4820;DHT22;2424;49.696;6.630;2022-09-03T17:45:00;21.70;99.90
4820;DHT22;2424;49.696;6.630;2022-09-03T17:50:25;21.60;99.90
4820;DHT22;2424;49.696;6.630;2022-09-03T17:55:55;21.40;99.90
4820;DHT22;2424;49.696;6.630;2022-09-03T18:01:22;21.20;99.90
4820;DHT22;2424;49.696;6.630;2022-09-03T18:06:53;21.10;99.90
4820;DHT22;2424;49.696;6.630;2022-09-03T18:12:28;21.20;99.90
4820;DHT22;2424;49.696;6.630;2022-09-03T18:17:58;21.10;99.90
4820;DHT22;2424;49.696;6.630;2022-09-03T18:23:24;21.10;99.90
4820;DHT22;2424;49.696;6.630;2022-09-03T18:29:11;21.10;99.90
4820;DHT22;2424;49.696;6.630;2022-09-03T18:34:51;21.00;99.90
4820;DHT22;2424;49.696;6.630;2022-09-03T18:40:37;20.90;99.90
4820;DHT22;2424;49.696;6.630;2022-09-03T18:46:25;20.70;99.90
4820;DHT22;2424;49.696;6.630;2022-09-03T18:52:12;20.80;99.90
4820;DHT22;2424;49.696;6.630;2022-09-03T18:58:03;20.60;99.90
4820;DHT22;2424;49.696;6.630;2022-09-03T19:03:56;20.50;99.90
4820;DHT22;2424;49.696;6.630;2022-09-03T19:09:47;20.60;99.90
4820;DHT22;2424;49.696;6.630;2022-09-03T19:15:36;20.50;99.90
4820;DHT22;2424;49.696;6.630;2022-09-03T19:21:26;20.50;99.90
4820;DHT22;2424;49.696;6.630;2022-09-03T19:27:12;20.40;99.90
4820;DHT22;2424;49.696;6.630;2022-09-03T19:33:05;20.40;99.90
4820;DHT22;2424;49.696;6.630;2022-09-03T19:38:59;20.30;99.90
4820;DHT22;2424;49.696;6.630;2022-09-03T19:44:50;20.30;99.90
4820;DHT22;2424;49.696;6.630;2022-09-03T19:50:36;20.20;99.90
4820;DHT22;2424;49.696;6.630;2022-09-03T19:56:24;20.20;99.90
4820;DHT22;2424;49.696;6.630;2022-09-03T20:02:05;20.10;99.90
4820;DHT22;2424;49.696;6.630;2022-09-03T20:07:48;20.00;99.90
4820;DHT22;2424;49.696;6.630;2022-09-03T20:13:30;20.00;99.90
4820;DHT22;2424;49.696;6.630;2022-09-03T20:19:17;19.90;99.90
4820;DHT22;2424;49.696;6.630;2022-09-03T20:24:47;19.80;99.90
4820;DHT22;2424;49.696;6.630;2022-09-03T20:30:18;19.70;99.90
4820;DHT22;2424;49.696;6.630;2022-09-03T20:35:49;19.60;99.90
4820;DHT22;2424;49.696;6.630;2022-09-03T20:41:18;19.40;99.90
4820;DHT22;2424;49.696;6.630;2022-09-03T20:46:53;19.40;99.90
4820;DHT22;2424;49.696;6.630;2022-09-03T20:52:19;19.30;99.90
4820;DHT22;2424;49.696;6.630;2022-09-03T20:57:52;19.30;99.90
4820;DHT22;2424;49.696;6.630;2022-09-03T21:03:21;19.20;99.90
4820;DHT22;2424;49.696;6.630;2022-09-03T21:09:00;19.20;99.90
4820;DHT22;2424;49.696;6.630;2022-09-03T21:14:29;19.20;99.90
4820;DHT22;2424;49.696;6.630;2022-09-03T21:20:02;19.10;99.90
4820;DHT22;2424;49.696;6.630;2022-09-03T21:25:31;19.00;99.90
4820;DHT22;2424;49.696;6.630;2022-09-03T21:30:58;18.90;99.90
4820;DHT22;2424;49.696;6.630;2022-09-03T21:36:28;18.90;99.90
4820;DHT22;2424;49.696;6.630;2022-09-03T21:41:56;18.80;99.90
4820;DHT22;2424;49.696;6.630;2022-09-03T21:47:19;18.70;99.90
4820;DHT22;2424;49.696;6.630;2022-09-03T21:52:50;18.70;99.90
4820;DHT22;2424;49.696;6.630;2022-09-03T21:58:24;18.60;99.90
4820;DHT22;2424;49.696;6.630;2022-09-03T22:03:50;18.50;99.90
4820;DHT22;2424;49.696;6.630;2022-09-03T22:09:17;18.40;99.90
4820;DHT22;2424;49.696;6.630;2022-09-03T22:14:44;18.30;99.90
4820;DHT22;2424;49.696;6.630;2022-09-03T22:20:08;18.30;99.90
4820;DHT22;2424;49.696;6.630;2022-09-03T22:25:40;18.30;99.90
4820;DHT22;2424;49.696;6.630;2022-09-03T22:31:11;18.20;99.90
4820;DHT22;2424;49.696;6.630;2022-09-03T22:36:39;18.20;99.90
4820;DHT22;2424;49.696;6.630;2022-09-03T22:42:26;18.10;99.90
4820;DHT22;2424;49.696;6.630;2022-09-03T22:48:06;18.00;99.90
4820;DHT22;2424;49.696;6.630;2022-09-03T22:53:45;18.00;99.90
4820;DHT22;2424;49.696;6.630;2022-09-03T22:59:14;17.90;99.90
4820;DHT22;2424;49.696;6.630;2022-09-03T23:04:49;17.80;99.90
4820;DHT22;2424;49.696;6.630;2022-09-03T23:10:20;17.80;99.90
4820;DHT22;2424;49.696;6.630;2022-09-03T23:15:49;17.60;99.90
4820;DHT22;2424;49.696;6.630;2022-09-03T23:21:20;17.60;99.90
4820;DHT22;2424;49.696;6.630;2022-09-03T23:26:46;17.60;99.90
4820;DHT22;2424;49.696;6.630;2022-09-03T23:32:10;17.50;99.90
4820;DHT22;2424;49.696;6.630;2022-09-03T23:37:43;17.50;99.90
4820;DHT22;2424;49.696;6.630;2022-09-03T23:49:33;17.50;99.90
4820;DHT22;2424;49.696;6.630;2022-09-03T23:55:03;17.50;99.90
